createdAt,value
2022-12-31T00:00:33.153Z,24.05
2022-12-31T00:01:33.111Z,24.08
2022-12-31T00:02:33.189Z,24.05
2022-12-31T00:03:33.150Z,24.05
2022-12-31T00:04:33.111Z,24.06
2022-12-31T00:05:33.102Z,24.03
2022-12-31T00:06:33.115Z,24.03
2022-12-31T00:08:41.204Z,24.03
2022-12-31T00:09:41.156Z,24.03
2022-12-31T00:10:41.146Z,24.05
2022-12-31T00:11:41.117Z,24.03
2022-12-31T00:12:41.132Z,24.03
2022-12-31T00:13:41.094Z,24.06
2022-12-31T00:14:41.093Z,24.06
2022-12-31T00:15:41.126Z,24.03
2022-12-31T00:16:41.056Z,24.03
2022-12-31T00:17:41.073Z,24.03
2022-12-31T00:18:40.995Z,24.05
2022-12-31T00:19:40.992Z,24.03
2022-12-31T00:20:40.961Z,24.03
2022-12-31T00:21:40.966Z,24.05
2022-12-31T00:22:40.947Z,24.02
2022-12-31T00:23:40.929Z,24.03
2022-12-31T00:24:40.914Z,24.03
2022-12-31T00:25:40.907Z,24.02
2022-12-31T00:26:40.855Z,24.02
2022-12-31T00:27:40.834Z,24.03
2022-12-31T00:28:40.844Z,24.03
2022-12-31T00:29:40.828Z,24.05
2022-12-31T00:30:40.852Z,24.05
2022-12-31T00:31:40.794Z,24.03
2022-12-31T00:32:40.745Z,24.03
2022-12-31T00:33:40.734Z,24.01
2022-12-31T00:34:40.717Z,24.01
2022-12-31T00:35:40.683Z,24.02
2022-12-31T00:36:40.667Z,24.02
2022-12-31T00:37:40.642Z,24.03
2022-12-31T00:38:40.638Z,24.02
2022-12-31T00:39:40.608Z,24.01
2022-12-31T00:40:40.574Z,24.01
2022-12-31T00:41:40.596Z,24.02
2022-12-31T00:42:40.564Z,24.02
2022-12-31T00:43:40.524Z,24.02
2022-12-31T00:44:40.530Z,24.01
2022-12-31T00:45:40.534Z,24.03
2022-12-31T00:47:48.544Z,24.01
2022-12-31T00:48:48.556Z,24.01
2022-12-31T00:49:48.538Z,24.01
2022-12-31T00:50:48.503Z,24.03
2022-12-31T00:51:49.234Z,24.01
2022-12-31T00:52:49.225Z,24.02
2022-12-31T00:53:48.473Z,24.03
2022-12-31T00:54:48.448Z,24.01
2022-12-31T00:55:48.449Z,24.02
2022-12-31T00:56:48.409Z,24.02
2022-12-31T00:57:48.398Z,24.01
2022-12-31T00:58:48.387Z,24.02
2022-12-31T00:59:48.361Z,23.99
2022-12-31T01:00:48.346Z,24.01
2022-12-31T01:01:48.450Z,24.03
2022-12-31T01:02:48.463Z,24.05
2022-12-31T01:03:48.302Z,24.02
2022-12-31T01:04:48.263Z,24.01
2022-12-31T01:05:48.264Z,24.02
2022-12-31T01:06:48.217Z,24.02
2022-12-31T01:07:48.188Z,24.02
2022-12-31T01:08:48.190Z,24.05
2022-12-31T01:09:48.143Z,24.01
2022-12-31T01:10:48.175Z,24.02
2022-12-31T01:11:48.107Z,24.02
2022-12-31T01:12:48.088Z,24.02
2022-12-31T01:13:48.068Z,23.99
2022-12-31T01:14:48.044Z,23.98
2022-12-31T01:15:48.077Z,24.01
2022-12-31T01:16:48.020Z,24.01
2022-12-31T01:17:47.980Z,23.96
2022-12-31T01:18:47.957Z,23.96
2022-12-31T01:19:47.936Z,23.95
2022-12-31T01:20:47.929Z,23.96
2022-12-31T01:21:47.883Z,23.96
2022-12-31T01:22:47.907Z,23.94
2022-12-31T01:23:47.859Z,23.95
2022-12-31T01:24:47.827Z,23.96
2022-12-31T01:25:47.799Z,23.95
2022-12-31T01:26:47.773Z,23.96
2022-12-31T01:27:47.746Z,23.94
2022-12-31T01:28:47.724Z,23.94
2022-12-31T01:29:47.698Z,23.95
2022-12-31T01:30:47.712Z,23.95
2022-12-31T01:31:47.661Z,23.96
2022-12-31T01:32:47.634Z,23.96
2022-12-31T01:33:47.631Z,23.95
2022-12-31T01:34:47.586Z,23.98
2022-12-31T01:35:47.565Z,23.95
2022-12-31T01:36:47.530Z,23.94
2022-12-31T01:37:47.506Z,23.96
2022-12-31T01:38:47.475Z,23.96
2022-12-31T01:39:47.450Z,23.96
2022-12-31T01:40:47.440Z,23.96
2022-12-31T01:41:47.434Z,23.96
2022-12-31T01:42:47.380Z,23.96
2022-12-31T01:43:47.340Z,23.98
2022-12-31T01:44:47.335Z,23.99
2022-12-31T01:45:47.309Z,23.99
2022-12-31T01:46:47.277Z,23.99
2022-12-31T01:47:47.243Z,23.99
2022-12-31T01:48:47.232Z,24.02
2022-12-31T01:49:47.211Z,24.01
2022-12-31T01:50:47.215Z,24.01
2022-12-31T01:51:47.144Z,24.01
2022-12-31T01:52:47.120Z,24.01
2022-12-31T01:53:47.116Z,24.03
2022-12-31T01:54:47.081Z,24.01
2022-12-31T01:55:47.053Z,24.02
2022-12-31T01:56:47.061Z,24.02
2022-12-31T01:57:47.024Z,24.02
2022-12-31T01:58:46.991Z,24.01
2022-12-31T01:59:46.961Z,24.02
2022-12-31T02:00:46.940Z,24.02
2022-12-31T02:01:47.055Z,23.99
2022-12-31T02:02:47.007Z,24.01
2022-12-31T02:03:46.878Z,24.01
2022-12-31T02:04:46.862Z,23.98
2022-12-31T02:05:46.836Z,23.99
2022-12-31T02:06:46.830Z,24.01
2022-12-31T02:07:46.798Z,24.01
2022-12-31T02:08:46.784Z,24.01
2022-12-31T02:09:46.756Z,24.01
2022-12-31T02:10:46.743Z,23.99
2022-12-31T02:11:46.770Z,24.02
2022-12-31T02:12:46.709Z,23.99
2022-12-31T02:13:46.694Z,24.02
2022-12-31T02:14:46.672Z,23.99
2022-12-31T02:15:46.671Z,24.01
2022-12-31T02:16:46.625Z,24.01
2022-12-31T02:17:46.630Z,23.99
2022-12-31T02:18:46.589Z,23.99
2022-12-31T02:19:46.580Z,23.98
2022-12-31T02:20:46.556Z,23.99
2022-12-31T02:21:46.553Z,24.01
2022-12-31T02:22:46.521Z,24.02
2022-12-31T02:23:46.516Z,23.99
2022-12-31T02:24:46.493Z,23.98
2022-12-31T02:25:46.491Z,24.02
2022-12-31T02:26:46.458Z,23.98
2022-12-31T02:27:46.441Z,23.99
2022-12-31T02:28:46.422Z,23.99
2022-12-31T02:29:46.393Z,23.98
2022-12-31T02:30:46.365Z,23.98
2022-12-31T02:31:46.442Z,23.99
2022-12-31T02:32:46.338Z,23.98
2022-12-31T02:33:46.323Z,23.99
2022-12-31T02:34:46.320Z,23.99
2022-12-31T02:35:46.278Z,23.98
2022-12-31T02:36:46.265Z,23.99
2022-12-31T02:37:46.235Z,23.99
2022-12-31T02:38:46.208Z,23.99
2022-12-31T02:39:46.199Z,23.98
2022-12-31T02:40:46.155Z,24.01
2022-12-31T02:41:46.131Z,23.99
2022-12-31T02:42:50.086Z,24.01
2022-12-31T02:44:46.079Z,23.99
2022-12-31T02:45:46.052Z,23.98
2022-12-31T02:46:46.064Z,23.96
2022-12-31T02:47:46.019Z,24.01
2022-12-31T02:48:45.994Z,23.99
2022-12-31T02:49:45.975Z,23.98
2022-12-31T02:50:45.948Z,23.98
2022-12-31T02:51:45.949Z,23.99
2022-12-31T02:52:45.926Z,23.99
2022-12-31T02:53:45.892Z,23.99
2022-12-31T02:54:45.886Z,23.99
2022-12-31T02:55:45.854Z,23.99
2022-12-31T02:56:45.914Z,24.01
2022-12-31T02:57:45.828Z,23.98
2022-12-31T02:58:45.802Z,23.96
2022-12-31T02:59:45.795Z,23.98
2022-12-31T03:00:45.814Z,23.96
2022-12-31T03:01:45.858Z,23.99
2022-12-31T03:02:45.825Z,23.98
2022-12-31T03:03:45.724Z,23.96
2022-12-31T03:04:45.691Z,23.98
2022-12-31T03:05:45.688Z,24.01
2022-12-31T03:06:45.637Z,23.98
2022-12-31T03:07:45.637Z,23.96
2022-12-31T03:08:45.605Z,23.96
2022-12-31T03:09:45.580Z,23.96
2022-12-31T03:10:45.556Z,23.96
2022-12-31T03:11:45.524Z,23.96
2022-12-31T03:12:45.501Z,23.98
2022-12-31T03:13:45.484Z,23.98
2022-12-31T03:14:45.464Z,23.98
2022-12-31T03:15:45.427Z,23.96
2022-12-31T03:16:45.404Z,23.95
2022-12-31T03:17:45.410Z,23.98
2022-12-31T08:29:38.590Z,23.86
2022-12-31T08:30:38.545Z,23.88
2022-12-31T08:31:38.539Z,23.86
2022-12-31T08:32:38.525Z,23.88
2022-12-31T08:33:38.492Z,23.88
2022-12-31T08:34:38.468Z,23.88
2022-12-31T08:35:38.436Z,23.88
2022-12-31T08:36:38.419Z,23.88
2022-12-31T08:37:38.404Z,23.86
2022-12-31T08:42:38.276Z,23.85
2022-12-31T08:50:38.100Z,23.86
2022-12-31T08:51:38.075Z,23.85
2022-12-31T08:52:38.039Z,23.85
2022-12-31T08:53:38.020Z,23.85
2022-12-31T08:54:37.997Z,23.85
2022-12-31T08:55:37.985Z,23.85
2022-12-31T08:56:37.957Z,23.84
2022-12-31T08:57:37.932Z,23.85
2022-12-31T08:58:37.918Z,23.86
2022-12-31T08:59:37.943Z,23.85
2022-12-31T09:00:37.866Z,23.86
2022-12-31T09:01:37.958Z,23.84
2022-12-31T14:21:30.262Z,24.22
2022-12-31T14:22:30.249Z,24.20
2022-12-31T14:23:30.215Z,24.20
2022-12-31T14:24:30.192Z,24.20
2022-12-31T14:25:30.161Z,24.17
2022-12-31T14:26:30.160Z,24.17
2022-12-31T14:27:30.132Z,24.17
2022-12-31T14:28:30.117Z,24.17
2022-12-31T14:29:30.068Z,24.16
2022-12-31T14:30:30.056Z,24.15
2022-12-31T14:31:30.084Z,24.15
2022-12-31T14:32:30.001Z,24.15
2022-12-31T14:33:29.969Z,24.17
2022-12-31T14:34:29.936Z,24.12
2022-12-31T14:35:29.944Z,24.15
2022-12-31T14:36:29.893Z,24.12
2022-12-31T14:37:29.865Z,24.13
2022-12-31T14:38:29.855Z,24.12
2022-12-31T14:39:30.605Z,24.11
2022-12-31T14:40:29.808Z,24.09
2022-12-31T14:41:29.818Z,24.11
2022-12-31T14:42:29.777Z,24.12
2022-12-31T14:43:29.748Z,24.11
2022-12-31T14:44:29.738Z,24.08
2022-12-31T14:45:29.742Z,24.09
2022-12-31T14:46:29.652Z,24.09
2022-12-31T14:47:29.646Z,24.09
2022-12-31T14:48:29.641Z,24.06
2022-12-31T14:49:29.589Z,24.05
2022-12-31T14:50:29.556Z,24.06
2022-12-31T14:51:29.528Z,24.05
2022-12-31T14:52:29.547Z,24.06
2022-12-31T14:53:29.483Z,24.03
2022-12-31T14:54:29.521Z,24.02
2022-12-31T14:55:29.418Z,24.02
2022-12-31T14:56:29.388Z,24.01
2022-12-31T14:57:29.372Z,24.03
2022-12-31T14:58:29.483Z,24.01
2022-12-31T14:59:29.348Z,24.02
2022-12-31T15:00:29.332Z,24.02
2022-12-31T15:01:29.406Z,24.01
2022-12-31T15:02:29.419Z,24.02
2022-12-31T15:03:29.277Z,23.96
2022-12-31T15:04:29.203Z,24.01
2022-12-31T15:05:29.165Z,23.99
2022-12-31T15:06:29.163Z,23.99
2022-12-31T15:07:29.124Z,23.99
2022-12-31T15:08:29.095Z,23.99
2022-12-31T15:09:29.077Z,23.99
2022-12-31T15:10:29.049Z,23.98
2022-12-31T15:11:29.030Z,23.99
2022-12-31T15:12:29.000Z,23.99
2022-12-31T15:13:28.981Z,23.96
2022-12-31T15:14:35.207Z,23.95
2022-12-31T15:15:29.929Z,23.96
2022-12-31T15:16:28.931Z,23.98
2022-12-31T15:17:28.882Z,23.98
2022-12-31T15:18:28.883Z,23.98
2022-12-31T15:19:28.876Z,23.98
2022-12-31T15:20:28.826Z,23.95
2022-12-31T15:21:28.815Z,23.95
2022-12-31T15:22:28.777Z,23.94
2022-12-31T15:23:28.746Z,23.95
2022-12-31T15:24:28.728Z,23.94
2022-12-31T15:25:28.736Z,23.94
2022-12-31T15:26:28.678Z,23.94
2022-12-31T15:27:28.647Z,23.94
2022-12-31T15:28:28.642Z,23.95
2022-12-31T15:29:28.600Z,23.94
2022-12-31T15:30:28.554Z,23.95
2022-12-31T15:31:28.654Z,23.94
2022-12-31T15:32:28.527Z,23.94
2022-12-31T15:33:28.501Z,23.94
2022-12-31T15:34:28.490Z,23.92
2022-12-31T15:35:28.456Z,23.94
2022-12-31T15:36:28.442Z,23.94
2022-12-31T15:37:28.403Z,23.95
2022-12-31T15:38:28.384Z,23.91
2022-12-31T15:39:28.371Z,23.91
2022-12-31T15:40:28.346Z,23.92
2022-12-31T15:41:28.327Z,23.94
2022-12-31T15:42:37.907Z,23.92
2022-12-31T15:43:29.262Z,23.92
2022-12-31T15:44:28.248Z,23.95
2022-12-31T15:45:28.231Z,23.91
2022-12-31T15:46:28.241Z,23.92
2022-12-31T15:47:28.179Z,23.94
2022-12-31T15:48:28.168Z,23.94
2022-12-31T15:49:28.117Z,23.94
2022-12-31T15:50:28.107Z,23.95
2022-12-31T15:51:28.078Z,23.92
2022-12-31T15:52:28.086Z,23.92
2022-12-31T15:53:28.035Z,23.94
2022-12-31T15:54:28.096Z,23.94
2022-12-31T15:55:28.011Z,23.92
2022-12-31T15:56:27.966Z,23.89
2022-12-31T15:57:27.936Z,23.94
2022-12-31T15:58:27.921Z,23.94
2022-12-31T15:59:27.888Z,23.92
2022-12-31T16:00:27.866Z,23.92
2022-12-31T16:01:27.936Z,23.92
2022-12-31T18:21:24.283Z,23.67
2022-12-31T18:22:24.273Z,23.67
2022-12-31T18:23:24.231Z,23.67
2022-12-31T18:24:26.124Z,23.68
2022-12-31T18:42:23.736Z,23.67
2022-12-31T18:43:23.721Z,23.68
2022-12-31T18:44:23.673Z,23.67
2022-12-31T18:45:23.683Z,23.67
2022-12-31T18:46:23.658Z,23.65
2022-12-31T18:47:23.601Z,23.64
2022-12-31T18:48:23.578Z,23.62
2022-12-31T18:49:23.552Z,23.65
2022-12-31T18:50:23.522Z,23.65
2022-12-31T18:51:31.015Z,23.67
2022-12-31T18:52:24.477Z,23.62
2022-12-31T18:53:23.484Z,23.64
2022-12-31T18:54:23.465Z,23.65
2022-12-31T18:55:23.423Z,23.67
2022-12-31T18:56:23.386Z,23.64
2022-12-31T18:57:23.362Z,23.65
2022-12-31T18:58:23.347Z,23.67
2022-12-31T18:59:23.305Z,23.62
2022-12-31T19:00:23.281Z,23.64
2022-12-31T19:01:23.310Z,23.62
2022-12-31T19:02:23.225Z,23.64
2022-12-31T19:03:23.348Z,23.65
2022-12-31T19:04:28.102Z,23.62
2022-12-31T19:05:24.157Z,23.64
2022-12-31T19:06:23.166Z,23.64
2022-12-31T19:07:23.100Z,23.64
2022-12-31T19:08:23.084Z,23.62
2022-12-31T19:09:44.679Z,23.64
2022-12-31T19:10:24.020Z,23.64
2022-12-31T19:11:23.025Z,23.62
2022-12-31T19:12:22.970Z,23.64
2022-12-31T19:13:22.946Z,23.61
2022-12-31T19:14:22.957Z,23.64
2022-12-31T19:15:22.874Z,23.64
2022-12-31T19:16:22.913Z,23.62
2022-12-31T19:17:22.823Z,23.64
2022-12-31T20:32:21.086Z,23.43
2022-12-31T20:35:21.010Z,23.46
2022-12-31T20:36:20.999Z,23.46
2022-12-31T20:37:20.980Z,23.47
2022-12-31T20:38:20.929Z,23.50
2022-12-31T20:39:21.026Z,23.50
2022-12-31T20:40:20.892Z,23.47
2022-12-31T20:41:20.852Z,23.46
2022-12-31T20:42:20.871Z,23.47
2022-12-31T20:43:20.866Z,23.44
2022-12-31T20:44:20.764Z,23.46
2022-12-31T20:45:20.776Z,23.46
2022-12-31T20:46:20.812Z,23.46
2022-12-31T20:47:21.219Z,23.46
2022-12-31T20:48:20.676Z,23.44
2022-12-31T20:49:37.066Z,23.44
2022-12-31T20:50:21.611Z,23.46
2022-12-31T20:51:20.574Z,23.44
2022-12-31T20:52:20.548Z,23.43
2022-12-31T20:53:20.553Z,23.43
2022-12-31T20:54:20.519Z,23.43
2022-12-31T20:55:20.501Z,23.43
2022-12-31T20:56:20.486Z,23.46
2022-12-31T20:57:20.439Z,23.44
2022-12-31T20:58:20.414Z,23.44
2022-12-31T20:59:20.410Z,23.44
2022-12-31T21:00:20.374Z,23.47
2022-12-31T21:01:20.463Z,23.47
2022-12-31T21:02:21.591Z,23.47
2022-12-31T21:03:54.133Z,23.47
2022-12-31T21:04:21.501Z,23.46
2022-12-31T21:05:20.486Z,23.46
2022-12-31T21:06:20.223Z,23.47
2022-12-31T21:07:20.210Z,23.49
2022-12-31T21:08:20.198Z,23.50
2022-12-31T21:09:20.154Z,23.51
2022-12-31T21:10:20.145Z,23.50
2022-12-31T21:11:20.124Z,23.53
2022-12-31T21:12:20.070Z,23.51
2022-12-31T21:13:20.046Z,23.53
2022-12-31T21:14:20.026Z,23.49
2022-12-31T21:15:20.028Z,23.53
2022-12-31T21:16:19.977Z,23.53
2022-12-31T21:17:19.973Z,23.53
2022-12-31T21:18:19.946Z,23.53
2022-12-31T21:19:19.911Z,23.54
2022-12-31T21:20:19.885Z,23.54
2022-12-31T21:21:19.880Z,23.53
2022-12-31T21:22:19.837Z,23.53
2022-12-31T21:23:19.825Z,23.54
2022-12-31T21:24:23.755Z,23.51
2022-12-31T21:25:19.784Z,23.53
2022-12-31T21:26:19.759Z,23.53
2022-12-31T21:27:19.722Z,23.53
2022-12-31T21:28:19.693Z,23.51
2022-12-31T21:29:19.690Z,23.51
2022-12-31T21:30:20.162Z,23.54
2022-12-31T21:31:19.671Z,23.50
2022-12-31T21:32:19.597Z,23.54
2022-12-31T21:33:19.564Z,23.51
2022-12-31T21:34:19.544Z,23.54
2022-12-31T21:36:21.240Z,23.56
2022-12-31T21:37:19.474Z,23.54
2022-12-31T21:38:19.430Z,23.53
2022-12-31T21:39:19.416Z,23.56
2022-12-31T21:40:19.404Z,23.56
2022-12-31T21:41:19.354Z,23.57
2022-12-31T21:42:19.337Z,23.56
2022-12-31T21:43:19.301Z,23.58
2022-12-31T21:44:19.288Z,23.58
2022-12-31T21:45:19.254Z,23.57
2022-12-31T21:46:19.280Z,23.57
2022-12-31T21:47:38.210Z,23.61
2022-12-31T21:48:20.213Z,23.60
2022-12-31T21:49:19.168Z,23.58
2022-12-31T21:50:19.140Z,23.60
2022-12-31T21:51:19.111Z,23.58
2022-12-31T21:52:19.132Z,23.56
2022-12-31T21:53:24.555Z,23.57
2022-12-31T21:54:20.037Z,23.58
2022-12-31T21:55:19.012Z,23.57
2022-12-31T21:56:18.998Z,23.58
2022-12-31T21:57:18.971Z,23.58
2022-12-31T21:58:27.629Z,23.57
2022-12-31T21:59:19.906Z,23.57
2022-12-31T22:00:40.959Z,23.57
2022-12-31T22:01:20.082Z,23.56
2022-12-31T22:02:18.957Z,23.58
2022-12-31T22:03:18.831Z,23.58
2022-12-31T22:04:59.887Z,23.57
2022-12-31T22:05:24.949Z,23.57
2022-12-31T22:06:19.747Z,23.57
2022-12-31T22:07:18.737Z,23.57
2022-12-31T22:08:18.712Z,23.56
2022-12-31T22:09:18.687Z,23.57
2022-12-31T22:10:18.671Z,23.56
2022-12-31T22:11:18.643Z,23.54
2022-12-31T22:12:18.623Z,23.57
2022-12-31T22:13:18.657Z,23.57
2022-12-31T22:14:18.556Z,23.56
2022-12-31T22:15:18.534Z,23.54
2022-12-31T22:16:18.551Z,23.57
2022-12-31T22:17:18.493Z,23.54
2022-12-31T22:18:18.487Z,23.57
2022-12-31T22:19:18.429Z,23.57
2022-12-31T22:20:26.961Z,23.58
2022-12-31T22:21:20.052Z,23.57
2022-12-31T22:22:18.384Z,23.57
2022-12-31T22:23:18.330Z,23.58
2022-12-31T22:24:18.299Z,23.58
2022-12-31T22:25:18.281Z,23.58
2022-12-31T22:26:18.253Z,23.56
2022-12-31T22:27:28.303Z,23.60
2022-12-31T22:29:18.206Z,23.58
2022-12-31T22:30:18.149Z,23.60
2022-12-31T22:31:18.186Z,23.60
2022-12-31T22:32:18.091Z,23.60
2022-12-31T22:33:18.074Z,23.61
2022-12-31T22:34:18.089Z,23.60
2022-12-31T22:35:18.041Z,23.61
2022-12-31T22:36:18.000Z,23.61
2022-12-31T22:37:54.430Z,23.61
2022-12-31T22:38:18.986Z,23.60
2022-12-31T22:39:44.177Z,23.58
2022-12-31T22:40:18.909Z,23.60
2022-12-31T22:41:17.896Z,23.60
2022-12-31T22:42:17.884Z,23.61
2022-12-31T22:43:17.853Z,23.58
2022-12-31T22:44:17.820Z,23.57
2022-12-31T22:45:17.811Z,23.60
2022-12-31T22:46:17.816Z,23.58
2022-12-31T22:47:17.807Z,23.58
2022-12-31T22:48:17.733Z,23.60
2022-12-31T22:49:17.705Z,23.60
2022-12-31T22:50:17.690Z,23.60
2022-12-31T22:51:17.664Z,23.60
2022-12-31T22:52:17.645Z,23.60
2022-12-31T22:53:17.611Z,23.61
2022-12-31T22:54:17.591Z,23.61
2022-12-31T22:55:17.564Z,23.61
2022-12-31T22:56:17.555Z,23.61
2022-12-31T22:57:20.237Z,23.61
2022-12-31T22:58:17.501Z,23.61
2022-12-31T22:59:17.530Z,23.62
2022-12-31T23:00:17.453Z,23.62
2022-12-31T23:01:17.478Z,23.64
2022-12-31T23:02:17.401Z,23.62
2022-12-31T23:03:17.480Z,23.61
2022-12-31T23:04:17.456Z,23.62
2022-12-31T23:05:17.339Z,23.62
2022-12-31T23:06:17.327Z,23.62
2022-12-31T23:07:17.289Z,23.60
2022-12-31T23:08:22.721Z,23.64
2022-12-31T23:09:17.253Z,23.62
2022-12-31T23:10:17.213Z,23.62
2022-12-31T23:11:17.200Z,23.64
2022-12-31T23:12:17.207Z,23.61
2022-12-31T23:13:17.159Z,23.64
2022-12-31T23:14:17.174Z,23.62
2022-12-31T23:15:17.128Z,23.61
2022-12-31T23:16:17.109Z,23.64
2022-12-31T23:17:29.546Z,23.61
2022-12-31T23:18:18.046Z,23.60
2022-12-31T23:19:17.025Z,23.61
2022-12-31T23:20:17.007Z,23.60
2022-12-31T23:21:16.974Z,23.61
2022-12-31T23:22:16.944Z,23.61
2022-12-31T23:23:16.928Z,23.61
2022-12-31T23:24:21.603Z,23.60
2022-12-31T23:25:17.890Z,23.62
2022-12-31T23:26:16.836Z,23.61
2022-12-31T23:27:16.819Z,23.60
2022-12-31T23:28:16.853Z,23.64
2022-12-31T23:29:16.753Z,23.62
2022-12-31T23:30:16.759Z,23.62
2022-12-31T23:31:16.709Z,23.62
2022-12-31T23:32:16.667Z,23.62
2022-12-31T23:33:16.665Z,23.61
2022-12-31T23:34:16.625Z,23.60
2022-12-31T23:35:16.592Z,23.60
2022-12-31T23:36:16.573Z,23.62
2022-12-31T23:37:16.572Z,23.58
2022-12-31T23:38:16.529Z,23.61
2022-12-31T23:39:16.500Z,23.62
2022-12-31T23:40:21.124Z,23.60
2022-12-31T23:42:16.427Z,23.62
2022-12-31T23:43:16.411Z,23.62
2022-12-31T23:44:16.380Z,23.61
2022-12-31T23:45:16.367Z,23.60
2022-12-31T23:46:16.371Z,23.60
2022-12-31T23:47:16.305Z,23.57
2022-12-31T23:48:16.272Z,23.58
2022-12-31T23:49:16.270Z,23.53
2022-12-31T23:50:16.228Z,23.56
2022-12-31T23:51:16.181Z,23.56
2022-12-31T23:52:16.160Z,23.54
2022-12-31T23:53:16.133Z,23.53
2022-12-31T23:54:16.118Z,23.54
2022-12-31T23:55:16.078Z,23.54
2022-12-31T23:56:22.773Z,23.56
2022-12-31T23:57:16.033Z,23.54
2022-12-31T23:58:16.004Z,23.53
2022-12-31T23:59:15.994Z,23.56
